sensor_id;sensor_type;location;lat;lon;timestamp;P1;durP1;ratioP1;P2;durP2;ratioP2
4980;SDS011;2507;50.392;7.482;2022-07-25T00:00:18;9.70;;;8.80;;
4980;SDS011;2507;50.392;7.482;2022-07-25T00:02:43;9.40;;;8.50;;
4980;SDS011;2507;50.392;7.482;2022-07-25T00:05:09;9.17;;;8.37;;
4980;SDS011;2507;50.392;7.482;2022-07-25T00:07:34;9.17;;;8.20;;
4980;SDS011;2507;50.392;7.482;2022-07-25T00:09:59;10.70;;;9.60;;
4980;SDS011;2507;50.392;7.482;2022-07-25T00:12:24;10.73;;;8.47;;
4980;SDS011;2507;50.392;7.482;2022-07-25T00:14:50;9.97;;;9.03;;
4980;SDS011;2507;50.392;7.482;2022-07-25T00:17:15;9.43;;;8.67;;
4980;SDS011;2507;50.392;7.482;2022-07-25T00:19:40;10.80;;;9.70;;
4980;SDS011;2507;50.392;7.482;2022-07-25T00:22:06;9.63;;;8.83;;
4980;SDS011;2507;50.392;7.482;2022-07-25T00:24:31;9.83;;;8.83;;
4980;SDS011;2507;50.392;7.482;2022-07-25T00:26:56;11.03;;;9.93;;
4980;SDS011;2507;50.392;7.482;2022-07-25T00:29:22;10.00;;;9.23;;
4980;SDS011;2507;50.392;7.482;2022-07-25T00:31:47;10.83;;;9.93;;
4980;SDS011;2507;50.392;7.482;2022-07-25T00:34:12;9.33;;;8.57;;
4980;SDS011;2507;50.392;7.482;2022-07-25T00:36:38;9.17;;;8.37;;
4980;SDS011;2507;50.392;7.482;2022-07-25T00:39:03;10.93;;;9.93;;
4980;SDS011;2507;50.392;7.482;2022-07-25T00:41:29;11.00;;;9.90;;
4980;SDS011;2507;50.392;7.482;2022-07-25T00:43:55;9.50;;;8.60;;
4980;SDS011;2507;50.392;7.482;2022-07-25T00:46:20;9.83;;;9.03;;
4980;SDS011;2507;50.392;7.482;2022-07-25T00:48:46;9.23;;;8.40;;
4980;SDS011;2507;50.392;7.482;2022-07-25T00:51:11;11.60;;;10.40;;
4980;SDS011;2507;50.392;7.482;2022-07-25T00:53:37;11.10;;;10.20;;
4980;SDS011;2507;50.392;7.482;2022-07-25T00:56:03;9.90;;;9.00;;
4980;SDS011;2507;50.392;7.482;2022-07-25T00:58:29;9.60;;;8.70;;
4980;SDS011;2507;50.392;7.482;2022-07-25T01:00:55;11.10;;;9.10;;
4980;SDS011;2507;50.392;7.482;2022-07-25T01:03:21;9.97;;;8.97;;
4980;SDS011;2507;50.392;7.482;2022-07-25T01:05:47;10.67;;;9.57;;
4980;SDS011;2507;50.392;7.482;2022-07-25T01:08:14;11.00;;;9.47;;
4980;SDS011;2507;50.392;7.482;2022-07-25T01:10:42;10.10;;;9.27;;
4980;SDS011;2507;50.392;7.482;2022-07-25T01:13:08;9.93;;;9.13;;
4980;SDS011;2507;50.392;7.482;2022-07-25T01:15:33;10.00;;;9.07;;
4980;SDS011;2507;50.392;7.482;2022-07-25T01:17:58;10.47;;;9.50;;
4980;SDS011;2507;50.392;7.482;2022-07-25T01:20:25;9.33;;;8.43;;
4980;SDS011;2507;50.392;7.482;2022-07-25T01:22:51;11.43;;;10.37;;
4980;SDS011;2507;50.392;7.482;2022-07-25T01:25:17;9.83;;;8.93;;
4980;SDS011;2507;50.392;7.482;2022-07-25T01:27:43;9.50;;;8.60;;
4980;SDS011;2507;50.392;7.482;2022-07-25T01:30:10;11.43;;;10.20;;
4980;SDS011;2507;50.392;7.482;2022-07-25T01:32:37;14.20;;;10.40;;
4980;SDS011;2507;50.392;7.482;2022-07-25T01:35:04;12.60;;;9.97;;
4980;SDS011;2507;50.392;7.482;2022-07-25T01:37:30;10.67;;;9.77;;
4980;SDS011;2507;50.392;7.482;2022-07-25T01:39:56;10.97;;;9.87;;
4980;SDS011;2507;50.392;7.482;2022-07-25T01:42:21;13.67;;;9.80;;
4980;SDS011;2507;50.392;7.482;2022-07-25T01:44:47;10.33;;;9.30;;
4980;SDS011;2507;50.392;7.482;2022-07-25T01:47:12;11.30;;;10.30;;
4980;SDS011;2507;50.392;7.482;2022-07-25T01:49:38;11.70;;;10.57;;
4980;SDS011;2507;50.392;7.482;2022-07-25T01:52:03;10.67;;;9.70;;
4980;SDS011;2507;50.392;7.482;2022-07-25T01:54:29;10.03;;;9.13;;
4980;SDS011;2507;50.392;7.482;2022-07-25T01:56:54;10.20;;;9.20;;
4980;SDS011;2507;50.392;7.482;2022-07-25T01:59:20;9.70;;;8.80;;
4980;SDS011;2507;50.392;7.482;2022-07-25T02:01:45;10.10;;;9.10;;
4980;SDS011;2507;50.392;7.482;2022-07-25T02:04:10;10.97;;;9.87;;
4980;SDS011;2507;50.392;7.482;2022-07-25T02:06:35;11.20;;;10.10;;
4980;SDS011;2507;50.392;7.482;2022-07-25T02:09:02;10.90;;;9.90;;
4980;SDS011;2507;50.392;7.482;2022-07-25T02:11:28;12.13;;;9.07;;
4980;SDS011;2507;50.392;7.482;2022-07-25T02:13:53;11.30;;;10.30;;
4980;SDS011;2507;50.392;7.482;2022-07-25T02:16:18;22.13;;;10.87;;
4980;SDS011;2507;50.392;7.482;2022-07-25T02:18:43;11.20;;;10.10;;
4980;SDS011;2507;50.392;7.482;2022-07-25T02:21:09;12.73;;;11.40;;
4980;SDS011;2507;50.392;7.482;2022-07-25T02:23:35;13.77;;;9.70;;
4980;SDS011;2507;50.392;7.482;2022-07-25T02:26:00;11.13;;;10.23;;
4980;SDS011;2507;50.392;7.482;2022-07-25T02:28:27;11.03;;;10.13;;
4980;SDS011;2507;50.392;7.482;2022-07-25T02:30:52;11.60;;;10.60;;
4980;SDS011;2507;50.392;7.482;2022-07-25T02:33:17;11.20;;;10.20;;
4980;SDS011;2507;50.392;7.482;2022-07-25T02:35:43;11.60;;;10.40;;
4980;SDS011;2507;50.392;7.482;2022-07-25T02:38:08;12.40;;;11.30;;
4980;SDS011;2507;50.392;7.482;2022-07-25T02:40:33;12.03;;;10.83;;
4980;SDS011;2507;50.392;7.482;2022-07-25T02:42:59;12.40;;;10.93;;
4980;SDS011;2507;50.392;7.482;2022-07-25T02:45:24;14.13;;;11.00;;
4980;SDS011;2507;50.392;7.482;2022-07-25T02:47:49;11.17;;;10.17;;
4980;SDS011;2507;50.392;7.482;2022-07-25T02:50:15;18.13;;;13.80;;
4980;SDS011;2507;50.392;7.482;2022-07-25T02:52:41;16.60;;;14.83;;
4980;SDS011;2507;50.392;7.482;2022-07-25T02:55:06;15.13;;;11.53;;
4980;SDS011;2507;50.392;7.482;2022-07-25T02:57:32;12.13;;;11.03;;
4980;SDS011;2507;50.392;7.482;2022-07-25T02:59:57;15.30;;;13.73;;
4980;SDS011;2507;50.392;7.482;2022-07-25T03:02:23;13.67;;;12.27;;
4980;SDS011;2507;50.392;7.482;2022-07-25T03:04:48;14.03;;;12.63;;
4980;SDS011;2507;50.392;7.482;2022-07-25T03:07:13;14.13;;;12.60;;
4980;SDS011;2507;50.392;7.482;2022-07-25T03:09:39;11.40;;;10.30;;
4980;SDS011;2507;50.392;7.482;2022-07-25T03:12:04;13.87;;;12.40;;
4980;SDS011;2507;50.392;7.482;2022-07-25T03:14:29;14.00;;;12.60;;
4980;SDS011;2507;50.392;7.482;2022-07-25T03:16:55;12.27;;;10.70;;
4980;SDS011;2507;50.392;7.482;2022-07-25T03:19:20;12.53;;;11.33;;
4980;SDS011;2507;50.392;7.482;2022-07-25T03:21:45;12.07;;;11.07;;
4980;SDS011;2507;50.392;7.482;2022-07-25T03:24:11;13.00;;;11.70;;
4980;SDS011;2507;50.392;7.482;2022-07-25T03:26:36;12.90;;;11.40;;
4980;SDS011;2507;50.392;7.482;2022-07-25T03:29:01;11.13;;;10.13;;
4980;SDS011;2507;50.392;7.482;2022-07-25T03:31:27;12.20;;;10.70;;
4980;SDS011;2507;50.392;7.482;2022-07-25T03:33:52;13.10;;;11.60;;
4980;SDS011;2507;50.392;7.482;2022-07-25T03:36:17;12.30;;;11.20;;
4980;SDS011;2507;50.392;7.482;2022-07-25T03:38:43;13.87;;;12.57;;
4980;SDS011;2507;50.392;7.482;2022-07-25T03:41:09;12.93;;;11.63;;
4980;SDS011;2507;50.392;7.482;2022-07-25T03:43:34;12.43;;;11.33;;
4980;SDS011;2507;50.392;7.482;2022-07-25T03:45:59;12.03;;;10.93;;
4980;SDS011;2507;50.392;7.482;2022-07-25T03:48:24;11.13;;;10.03;;
4980;SDS011;2507;50.392;7.482;2022-07-25T03:50:50;12.90;;;11.60;;
4980;SDS011;2507;50.392;7.482;2022-07-25T03:53:15;13.80;;;12.50;;
4980;SDS011;2507;50.392;7.482;2022-07-25T03:55:40;14.60;;;13.13;;
4980;SDS011;2507;50.392;7.482;2022-07-25T03:58:06;14.67;;;13.10;;
4980;SDS011;2507;50.392;7.482;2022-07-25T04:00:31;12.67;;;11.27;;
4980;SDS011;2507;50.392;7.482;2022-07-25T04:02:56;13.40;;;12.00;;
4980;SDS011;2507;50.392;7.482;2022-07-25T04:05:22;12.57;;;11.20;;
4980;SDS011;2507;50.392;7.482;2022-07-25T04:07:47;14.00;;;11.90;;
4980;SDS011;2507;50.392;7.482;2022-07-25T04:10:12;12.60;;;11.43;;
4980;SDS011;2507;50.392;7.482;2022-07-25T04:12:37;12.50;;;11.40;;
4980;SDS011;2507;50.392;7.482;2022-07-25T04:15:03;12.80;;;10.80;;
4980;SDS011;2507;50.392;7.482;2022-07-25T04:17:29;13.33;;;12.03;;
4980;SDS011;2507;50.392;7.482;2022-07-25T04:19:54;16.67;;;13.70;;
4980;SDS011;2507;50.392;7.482;2022-07-25T04:22:20;23.00;;;12.07;;
4980;SDS011;2507;50.392;7.482;2022-07-25T04:24:45;13.73;;;11.70;;
4980;SDS011;2507;50.392;7.482;2022-07-25T04:27:11;12.50;;;11.33;;
4980;SDS011;2507;50.392;7.482;2022-07-25T04:29:37;12.83;;;11.13;;
4980;SDS011;2507;50.392;7.482;2022-07-25T04:32:02;13.60;;;10.97;;
4980;SDS011;2507;50.392;7.482;2022-07-25T04:34:28;11.63;;;10.63;;
4980;SDS011;2507;50.392;7.482;2022-07-25T04:36:53;15.10;;;10.30;;
4980;SDS011;2507;50.392;7.482;2022-07-25T04:39:18;11.20;;;10.03;;
4980;SDS011;2507;50.392;7.482;2022-07-25T04:41:43;12.57;;;10.40;;
4980;SDS011;2507;50.392;7.482;2022-07-25T04:44:09;16.43;;;10.67;;
4980;SDS011;2507;50.392;7.482;2022-07-25T04:46:34;15.17;;;9.77;;
4980;SDS011;2507;50.392;7.482;2022-07-25T04:48:59;12.40;;;9.80;;
4980;SDS011;2507;50.392;7.482;2022-07-25T04:51:25;10.20;;;9.27;;
4980;SDS011;2507;50.392;7.482;2022-07-25T04:53:50;8.77;;;7.97;;
4980;SDS011;2507;50.392;7.482;2022-07-25T04:56:15;10.17;;;9.17;;
4980;SDS011;2507;50.392;7.482;2022-07-25T04:58:41;10.23;;;9.13;;
4980;SDS011;2507;50.392;7.482;2022-07-25T05:01:06;8.47;;;7.60;;
4980;SDS011;2507;50.392;7.482;2022-07-25T05:03:31;9.60;;;8.70;;
4980;SDS011;2507;50.392;7.482;2022-07-25T05:05:57;10.30;;;8.13;;
4980;SDS011;2507;50.392;7.482;2022-07-25T05:08:22;8.33;;;7.63;;
4980;SDS011;2507;50.392;7.482;2022-07-25T05:10:47;9.00;;;8.20;;
4980;SDS011;2507;50.392;7.482;2022-07-25T05:13:13;8.97;;;8.17;;
4980;SDS011;2507;50.392;7.482;2022-07-25T05:15:38;12.43;;;8.10;;
4980;SDS011;2507;50.392;7.482;2022-07-25T05:18:03;10.13;;;7.47;;
4980;SDS011;2507;50.392;7.482;2022-07-25T05:20:29;8.77;;;7.93;;
4980;SDS011;2507;50.392;7.482;2022-07-25T05:22:55;8.07;;;7.10;;
4980;SDS011;2507;50.392;7.482;2022-07-25T05:25:20;8.63;;;7.80;;
4980;SDS011;2507;50.392;7.482;2022-07-25T05:27:46;8.47;;;7.73;;
4980;SDS011;2507;50.392;7.482;2022-07-25T05:30:12;7.30;;;6.73;;
4980;SDS011;2507;50.392;7.482;2022-07-25T05:32:38;9.50;;;7.23;;
4980;SDS011;2507;50.392;7.482;2022-07-25T05:35:05;8.60;;;7.70;;
4980;SDS011;2507;50.392;7.482;2022-07-25T05:37:32;7.50;;;6.90;;
4980;SDS011;2507;50.392;7.482;2022-07-25T05:39:58;7.80;;;7.03;;
4980;SDS011;2507;50.392;7.482;2022-07-25T05:42:23;7.67;;;7.00;;
4980;SDS011;2507;50.392;7.482;2022-07-25T05:44:48;8.00;;;7.23;;
4980;SDS011;2507;50.392;7.482;2022-07-25T05:47:14;11.27;;;7.20;;
4980;SDS011;2507;50.392;7.482;2022-07-25T05:49:39;9.00;;;7.10;;
4980;SDS011;2507;50.392;7.482;2022-07-25T05:52:05;8.03;;;7.30;;
4980;SDS011;2507;50.392;7.482;2022-07-25T05:54:30;11.00;;;7.47;;
4980;SDS011;2507;50.392;7.482;2022-07-25T05:56:56;12.60;;;7.87;;
4980;SDS011;2507;50.392;7.482;2022-07-25T05:59:21;11.77;;;7.70;;
4980;SDS011;2507;50.392;7.482;2022-07-25T06:01:46;9.60;;;7.87;;
4980;SDS011;2507;50.392;7.482;2022-07-25T06:04:11;7.40;;;6.77;;
4980;SDS011;2507;50.392;7.482;2022-07-25T06:06:37;10.53;;;7.43;;
4980;SDS011;2507;50.392;7.482;2022-07-25T06:09:02;8.47;;;7.97;;
4980;SDS011;2507;50.392;7.482;2022-07-25T06:11:28;7.77;;;7.10;;
4980;SDS011;2507;50.392;7.482;2022-07-25T06:13:54;9.80;;;7.50;;
4980;SDS011;2507;50.392;7.482;2022-07-25T06:16:20;7.97;;;7.17;;
4980;SDS011;2507;50.392;7.482;2022-07-25T06:18:45;9.37;;;7.27;;
4980;SDS011;2507;50.392;7.482;2022-07-25T06:21:11;8.73;;;6.40;;
4980;SDS011;2507;50.392;7.482;2022-07-25T06:23:36;12.68;;;7.65;;
4980;SDS011;2507;50.392;7.482;2022-07-25T06:26:01;13.70;;;8.60;;
4980;SDS011;2507;50.392;7.482;2022-07-25T06:28:27;11.97;;;7.70;;
4980;SDS011;2507;50.392;7.482;2022-07-25T06:30:52;8.07;;;7.23;;
4980;SDS011;2507;50.392;7.482;2022-07-25T06:33:17;10.60;;;6.60;;
4980;SDS011;2507;50.392;7.482;2022-07-25T06:35:43;7.77;;;6.60;;
4980;SDS011;2507;50.392;7.482;2022-07-25T06:38:08;10.33;;;6.73;;
4980;SDS011;2507;50.392;7.482;2022-07-25T06:40:33;8.77;;;6.82;;
4980;SDS011;2507;50.392;7.482;2022-07-25T06:42:58;7.55;;;6.50;;
4980;SDS011;2507;50.392;7.482;2022-07-25T06:45:24;9.57;;;7.25;;
4980;SDS011;2507;50.392;7.482;2022-07-25T06:47:49;15.55;;;8.38;;
4980;SDS011;2507;50.392;7.482;2022-07-25T06:50:15;8.18;;;7.38;;
4980;SDS011;2507;50.392;7.482;2022-07-25T06:52:45;8.18;;;6.38;;
4980;SDS011;2507;50.392;7.482;2022-07-25T06:55:12;6.43;;;5.93;;
4980;SDS011;2507;50.392;7.482;2022-07-25T06:57:39;6.53;;;5.90;;
4980;SDS011;2507;50.392;7.482;2022-07-25T07:00:05;7.10;;;6.43;;
4980;SDS011;2507;50.392;7.482;2022-07-25T07:02:34;9.48;;;6.13;;
4980;SDS011;2507;50.392;7.482;2022-07-25T07:05:26;9.02;;;6.25;;
4980;SDS011;2507;50.392;7.482;2022-07-25T07:07:53;6.88;;;6.15;;
4980;SDS011;2507;50.392;7.482;2022-07-25T07:10:19;7.10;;;6.40;;
4980;SDS011;2507;50.392;7.482;2022-07-25T07:12:46;7.03;;;6.40;;
4980;SDS011;2507;50.392;7.482;2022-07-25T07:15:11;5.93;;;5.43;;
4980;SDS011;2507;50.392;7.482;2022-07-25T07:17:36;6.90;;;6.15;;
4980;SDS011;2507;50.392;7.482;2022-07-25T07:20:03;6.50;;;6.00;;
4980;SDS011;2507;50.392;7.482;2022-07-25T07:22:30;6.65;;;6.15;;
4980;SDS011;2507;50.392;7.482;2022-07-25T07:24:55;5.50;;;4.85;;
4980;SDS011;2507;50.392;7.482;2022-07-25T07:27:20;7.45;;;6.35;;
4980;SDS011;2507;50.392;7.482;2022-07-25T07:29:48;10.25;;;6.57;;
4980;SDS011;2507;50.392;7.482;2022-07-25T07:32:14;5.97;;;5.45;;
4980;SDS011;2507;50.392;7.482;2022-07-25T07:34:39;7.32;;;5.20;;
4980;SDS011;2507;50.392;7.482;2022-07-25T07:37:04;9.05;;;5.22;;
4980;SDS011;2507;50.392;7.482;2022-07-25T07:39:30;9.90;;;5.60;;
4980;SDS011;2507;50.392;7.482;2022-07-25T07:41:55;9.45;;;5.50;;
4980;SDS011;2507;50.392;7.482;2022-07-25T07:44:20;6.28;;;5.22;;
4980;SDS011;2507;50.392;7.482;2022-07-25T07:46:46;18.65;;;6.13;;
4980;SDS011;2507;50.392;7.482;2022-07-25T07:49:11;9.75;;;6.50;;
4980;SDS011;2507;50.392;7.482;2022-07-25T07:51:36;10.25;;;6.18;;
4980;SDS011;2507;50.392;7.482;2022-07-25T07:54:02;13.52;;;5.93;;
4980;SDS011;2507;50.392;7.482;2022-07-25T07:56:46;19.88;;;6.63;;
4980;SDS011;2507;50.392;7.482;2022-07-25T07:59:11;12.88;;;5.95;;
4980;SDS011;2507;50.392;7.482;2022-07-25T08:01:36;11.25;;;6.10;;
4980;SDS011;2507;50.392;7.482;2022-07-25T08:04:02;9.60;;;5.90;;
4980;SDS011;2507;50.392;7.482;2022-07-25T08:06:27;7.97;;;5.45;;
4980;SDS011;2507;50.392;7.482;2022-07-25T08:08:53;8.50;;;5.20;;
4980;SDS011;2507;50.392;7.482;2022-07-25T08:11:18;8.40;;;5.45;;
4980;SDS011;2507;50.392;7.482;2022-07-25T08:13:43;13.43;;;7.15;;
4980;SDS011;2507;50.392;7.482;2022-07-25T08:16:09;6.45;;;5.85;;
4980;SDS011;2507;50.392;7.482;2022-07-25T08:18:35;7.63;;;5.65;;
4980;SDS011;2507;50.392;7.482;2022-07-25T08:21:01;8.02;;;5.97;;
4980;SDS011;2507;50.392;7.482;2022-07-25T08:23:30;8.13;;;5.93;;
4980;SDS011;2507;50.392;7.482;2022-07-25T08:25:57;5.93;;;5.40;;
4980;SDS011;2507;50.392;7.482;2022-07-25T08:28:23;11.73;;;6.55;;
4980;SDS011;2507;50.392;7.482;2022-07-25T08:30:48;8.18;;;5.55;;
4980;SDS011;2507;50.392;7.482;2022-07-25T08:33:14;6.43;;;5.82;;
4980;SDS011;2507;50.392;7.482;2022-07-25T08:35:49;10.52;;;5.80;;
4980;SDS011;2507;50.392;7.482;2022-07-25T08:38:17;8.82;;;5.88;;
4980;SDS011;2507;50.392;7.482;2022-07-25T08:40:43;10.88;;;5.85;;
4980;SDS011;2507;50.392;7.482;2022-07-25T08:43:12;13.52;;;5.85;;
4980;SDS011;2507;50.392;7.482;2022-07-25T08:45:41;10.85;;;5.68;;
4980;SDS011;2507;50.392;7.482;2022-07-25T08:48:09;7.88;;;5.68;;
4980;SDS011;2507;50.392;7.482;2022-07-25T08:50:34;5.72;;;5.28;;
4980;SDS011;2507;50.392;7.482;2022-07-25T08:53:00;7.32;;;5.75;;
4980;SDS011;2507;50.392;7.482;2022-07-25T08:55:26;5.35;;;4.80;;
4980;SDS011;2507;50.392;7.482;2022-07-25T08:57:52;10.73;;;5.30;;
4980;SDS011;2507;50.392;7.482;2022-07-25T09:00:19;8.77;;;4.97;;
4980;SDS011;2507;50.392;7.482;2022-07-25T09:05:17;8.82;;;5.70;;
4980;SDS011;2507;50.392;7.482;2022-07-25T09:07:44;8.27;;;5.65;;
4980;SDS011;2507;50.392;7.482;2022-07-25T09:10:17;13.05;;;6.32;;
4980;SDS011;2507;50.392;7.482;2022-07-25T09:12:54;14.00;;;6.63;;
4980;SDS011;2507;50.392;7.482;2022-07-25T09:15:30;9.73;;;6.40;;
4980;SDS011;2507;50.392;7.482;2022-07-25T09:17:58;8.20;;;6.27;;
4980;SDS011;2507;50.392;7.482;2022-07-25T09:20:35;7.33;;;6.20;;
4980;SDS011;2507;50.392;7.482;2022-07-25T09:23:06;17.57;;;6.57;;
4980;SDS011;2507;50.392;7.482;2022-07-25T09:25:31;15.23;;;7.40;;
4980;SDS011;2507;50.392;7.482;2022-07-25T09:30:52;8.50;;;5.60;;
4980;SDS011;2507;50.392;7.482;2022-07-25T09:33:19;8.67;;;6.33;;
4980;SDS011;2507;50.392;7.482;2022-07-25T09:35:45;13.90;;;6.07;;
4980;SDS011;2507;50.392;7.482;2022-07-25T09:38:12;7.53;;;6.83;;
4980;SDS011;2507;50.392;7.482;2022-07-25T09:40:39;9.17;;;6.17;;
4980;SDS011;2507;50.392;7.482;2022-07-25T09:43:05;7.37;;;6.53;;
4980;SDS011;2507;50.392;7.482;2022-07-25T09:45:31;10.00;;;6.17;;
4980;SDS011;2507;50.392;7.482;2022-07-25T09:47:57;8.73;;;6.20;;
4980;SDS011;2507;50.392;7.482;2022-07-25T09:50:28;6.10;;;5.60;;
4980;SDS011;2507;50.392;7.482;2022-07-25T09:52:56;7.87;;;7.07;;
4980;SDS011;2507;50.392;7.482;2022-07-25T09:55:22;10.00;;;6.07;;
4980;SDS011;2507;50.392;7.482;2022-07-25T09:57:48;8.30;;;6.47;;
4980;SDS011;2507;50.392;7.482;2022-07-25T10:00:20;6.47;;;6.00;;
4980;SDS011;2507;50.392;7.482;2022-07-25T10:02:55;6.63;;;6.03;;
4980;SDS011;2507;50.392;7.482;2022-07-25T10:05:56;7.33;;;5.50;;
4980;SDS011;2507;50.392;7.482;2022-07-25T10:08:36;7.67;;;5.87;;
4980;SDS011;2507;50.392;7.482;2022-07-25T10:11:02;7.10;;;6.10;;
4980;SDS011;2507;50.392;7.482;2022-07-25T10:13:31;7.67;;;5.40;;
4980;SDS011;2507;50.392;7.482;2022-07-25T10:15:58;6.17;;;5.57;;
4980;SDS011;2507;50.392;7.482;2022-07-25T10:18:25;5.57;;;5.07;;
4980;SDS011;2507;50.392;7.482;2022-07-25T10:20:53;7.30;;;5.10;;
4980;SDS011;2507;50.392;7.482;2022-07-25T10:23:22;5.53;;;4.90;;
4980;SDS011;2507;50.392;7.482;2022-07-25T10:25:59;6.03;;;5.10;;
4980;SDS011;2507;50.392;7.482;2022-07-25T10:28:34;5.27;;;4.87;;
4980;SDS011;2507;50.392;7.482;2022-07-25T10:31:00;5.37;;;4.97;;
4980;SDS011;2507;50.392;7.482;2022-07-25T10:33:25;5.43;;;5.03;;
4980;SDS011;2507;50.392;7.482;2022-07-25T10:35:50;7.57;;;5.60;;
4980;SDS011;2507;50.392;7.482;2022-07-25T10:38:22;8.20;;;5.90;;
4980;SDS011;2507;50.392;7.482;2022-07-25T10:40:48;7.73;;;5.50;;
4980;SDS011;2507;50.392;7.482;2022-07-25T10:43:18;7.43;;;5.50;;
4980;SDS011;2507;50.392;7.482;2022-07-25T10:45:48;5.50;;;5.10;;
4980;SDS011;2507;50.392;7.482;2022-07-25T10:50:57;5.77;;;5.20;;
4980;SDS011;2507;50.392;7.482;2022-07-25T10:53:36;5.90;;;5.50;;
4980;SDS011;2507;50.392;7.482;2022-07-25T10:58:41;5.93;;;5.20;;
4980;SDS011;2507;50.392;7.482;2022-07-25T11:01:09;5.60;;;4.97;;
4980;SDS011;2507;50.392;7.482;2022-07-25T11:03:35;12.07;;;4.83;;
4980;SDS011;2507;50.392;7.482;2022-07-25T11:06:00;5.17;;;4.40;;
4980;SDS011;2507;50.392;7.482;2022-07-25T11:08:29;7.87;;;4.90;;
4980;SDS011;2507;50.392;7.482;2022-07-25T11:10:56;4.80;;;4.50;;
4980;SDS011;2507;50.392;7.482;2022-07-25T11:13:21;8.00;;;5.73;;
4980;SDS011;2507;50.392;7.482;2022-07-25T11:15:47;5.53;;;4.37;;
4980;SDS011;2507;50.392;7.482;2022-07-25T11:18:12;7.87;;;5.37;;
4980;SDS011;2507;50.392;7.482;2022-07-25T11:20:37;7.17;;;5.00;;
4980;SDS011;2507;50.392;7.482;2022-07-25T11:23:03;7.70;;;5.83;;
4980;SDS011;2507;50.392;7.482;2022-07-25T11:25:28;5.93;;;5.50;;
4980;SDS011;2507;50.392;7.482;2022-07-25T11:27:54;7.27;;;6.70;;
4980;SDS011;2507;50.392;7.482;2022-07-25T11:30:22;5.67;;;5.27;;
4980;SDS011;2507;50.392;7.482;2022-07-25T11:32:51;6.43;;;4.70;;
4980;SDS011;2507;50.392;7.482;2022-07-25T11:35:19;6.27;;;4.90;;
4980;SDS011;2507;50.392;7.482;2022-07-25T11:37:46;5.53;;;5.03;;
4980;SDS011;2507;50.392;7.482;2022-07-25T11:40:15;5.10;;;4.63;;
4980;SDS011;2507;50.392;7.482;2022-07-25T11:42:46;5.10;;;4.70;;
4980;SDS011;2507;50.392;7.482;2022-07-25T11:45:17;4.60;;;4.25;;
4980;SDS011;2507;50.392;7.482;2022-07-25T11:47:48;6.93;;;5.63;;
4980;SDS011;2507;50.392;7.482;2022-07-25T11:50:35;5.43;;;5.03;;
4980;SDS011;2507;50.392;7.482;2022-07-25T11:53:04;7.17;;;5.10;;
4980;SDS011;2507;50.392;7.482;2022-07-25T11:55:32;7.00;;;6.10;;
4980;SDS011;2507;50.392;7.482;2022-07-25T11:58:01;6.90;;;5.80;;
4980;SDS011;2507;50.392;7.482;2022-07-25T12:00:28;8.90;;;5.30;;
4980;SDS011;2507;50.392;7.482;2022-07-25T12:03:04;10.80;;;5.73;;
4980;SDS011;2507;50.392;7.482;2022-07-25T12:05:40;6.00;;;5.33;;
4980;SDS011;2507;50.392;7.482;2022-07-25T12:08:24;7.90;;;5.20;;
4980;SDS011;2507;50.392;7.482;2022-07-25T12:10:49;8.17;;;4.70;;
4980;SDS011;2507;50.392;7.482;2022-07-25T12:13:28;5.33;;;4.93;;
4980;SDS011;2507;50.392;7.482;2022-07-25T12:15:55;12.80;;;5.90;;
4980;SDS011;2507;50.392;7.482;2022-07-25T12:18:21;6.03;;;5.63;;
4980;SDS011;2507;50.392;7.482;2022-07-25T12:20:47;8.00;;;5.50;;
4980;SDS011;2507;50.392;7.482;2022-07-25T12:23:12;6.40;;;4.63;;
4980;SDS011;2507;50.392;7.482;2022-07-25T12:25:38;7.20;;;5.03;;
4980;SDS011;2507;50.392;7.482;2022-07-25T12:28:05;5.83;;;4.33;;
4980;SDS011;2507;50.392;7.482;2022-07-25T12:30:32;7.60;;;5.17;;
4980;SDS011;2507;50.392;7.482;2022-07-25T12:32:58;6.77;;;6.00;;
4980;SDS011;2507;50.392;7.482;2022-07-25T12:35:24;8.83;;;4.70;;
4980;SDS011;2507;50.392;7.482;2022-07-25T12:37:50;6.40;;;5.70;;
4980;SDS011;2507;50.392;7.482;2022-07-25T12:40:16;8.20;;;5.53;;
4980;SDS011;2507;50.392;7.482;2022-07-25T12:42:42;11.13;;;6.50;;
4980;SDS011;2507;50.392;7.482;2022-07-25T12:45:08;6.83;;;6.13;;
4980;SDS011;2507;50.392;7.482;2022-07-25T12:47:34;5.70;;;5.20;;
4980;SDS011;2507;50.392;7.482;2022-07-25T12:50:00;7.00;;;5.07;;
4980;SDS011;2507;50.392;7.482;2022-07-25T12:52:26;5.43;;;5.07;;
4980;SDS011;2507;50.392;7.482;2022-07-25T12:54:51;6.47;;;4.90;;
4980;SDS011;2507;50.392;7.482;2022-07-25T12:57:17;5.57;;;5.17;;
4980;SDS011;2507;50.392;7.482;2022-07-25T12:59:44;5.57;;;5.20;;
4980;SDS011;2507;50.392;7.482;2022-07-25T13:02:10;6.70;;;6.00;;
4980;SDS011;2507;50.392;7.482;2022-07-25T13:04:35;6.60;;;6.10;;
4980;SDS011;2507;50.392;7.482;2022-07-25T13:07:00;6.27;;;5.87;;
4980;SDS011;2507;50.392;7.482;2022-07-25T13:09:26;5.70;;;5.30;;
4980;SDS011;2507;50.392;7.482;2022-07-25T13:11:52;6.80;;;6.10;;
4980;SDS011;2507;50.392;7.482;2022-07-25T13:14:17;7.20;;;5.73;;
4980;SDS011;2507;50.392;7.482;2022-07-25T13:16:46;7.53;;;5.90;;
4980;SDS011;2507;50.392;7.482;2022-07-25T13:19:12;6.60;;;6.00;;
4980;SDS011;2507;50.392;7.482;2022-07-25T13:21:38;6.97;;;6.30;;
4980;SDS011;2507;50.392;7.482;2022-07-25T13:24:03;6.57;;;6.07;;
4980;SDS011;2507;50.392;7.482;2022-07-25T13:26:31;6.50;;;6.00;;
4980;SDS011;2507;50.392;7.482;2022-07-25T13:28:56;7.03;;;6.40;;
4980;SDS011;2507;50.392;7.482;2022-07-25T13:31:22;5.87;;;5.47;;
4980;SDS011;2507;50.392;7.482;2022-07-25T13:33:47;6.70;;;6.13;;
4980;SDS011;2507;50.392;7.482;2022-07-25T13:36:13;6.83;;;6.20;;
4980;SDS011;2507;50.392;7.482;2022-07-25T13:38:39;8.53;;;5.23;;
4980;SDS011;2507;50.392;7.482;2022-07-25T13:41:08;11.13;;;4.80;;
4980;SDS011;2507;50.392;7.482;2022-07-25T13:43:33;13.80;;;4.97;;
4980;SDS011;2507;50.392;7.482;2022-07-25T13:45:59;17.37;;;4.90;;
4980;SDS011;2507;50.392;7.482;2022-07-25T13:48:25;17.93;;;4.90;;
4980;SDS011;2507;50.392;7.482;2022-07-25T13:50:51;18.70;;;4.50;;
4980;SDS011;2507;50.392;7.482;2022-07-25T13:53:16;16.53;;;5.07;;
4980;SDS011;2507;50.392;7.482;2022-07-25T13:55:42;10.37;;;4.70;;
4980;SDS011;2507;50.392;7.482;2022-07-25T13:58:07;10.80;;;4.53;;
4980;SDS011;2507;50.392;7.482;2022-07-25T14:00:32;10.63;;;4.03;;
4980;SDS011;2507;50.392;7.482;2022-07-25T14:02:58;12.07;;;5.53;;
4980;SDS011;2507;50.392;7.482;2022-07-25T14:05:23;10.27;;;7.63;;
4980;SDS011;2507;50.392;7.482;2022-07-25T14:07:49;7.73;;;6.73;;
4980;SDS011;2507;50.392;7.482;2022-07-25T14:10:14;7.53;;;6.83;;
4980;SDS011;2507;50.392;7.482;2022-07-25T14:12:39;8.03;;;7.23;;
4980;SDS011;2507;50.392;7.482;2022-07-25T14:15:05;7.87;;;7.17;;
4980;SDS011;2507;50.392;7.482;2022-07-25T14:17:34;7.97;;;7.27;;
4980;SDS011;2507;50.392;7.482;2022-07-25T14:19:59;9.40;;;7.10;;
4980;SDS011;2507;50.392;7.482;2022-07-25T14:22:25;13.27;;;6.70;;
4980;SDS011;2507;50.392;7.482;2022-07-25T14:24:50;8.33;;;6.00;;
4980;SDS011;2507;50.392;7.482;2022-07-25T14:27:15;9.00;;;6.13;;
4980;SDS011;2507;50.392;7.482;2022-07-25T14:29:41;7.23;;;6.63;;
4980;SDS011;2507;50.392;7.482;2022-07-25T14:32:06;9.30;;;6.20;;
4980;SDS011;2507;50.392;7.482;2022-07-25T14:34:32;6.20;;;5.60;;
4980;SDS011;2507;50.392;7.482;2022-07-25T14:36:59;7.63;;;6.07;;
4980;SDS011;2507;50.392;7.482;2022-07-25T14:39:24;9.20;;;6.00;;
4980;SDS011;2507;50.392;7.482;2022-07-25T14:41:50;9.03;;;6.33;;
4980;SDS011;2507;50.392;7.482;2022-07-25T14:44:15;9.27;;;6.63;;
4980;SDS011;2507;50.392;7.482;2022-07-25T14:46:41;8.80;;;6.20;;
4980;SDS011;2507;50.392;7.482;2022-07-25T14:49:10;7.30;;;6.60;;
4980;SDS011;2507;50.392;7.482;2022-07-25T14:51:36;8.17;;;6.00;;
4980;SDS011;2507;50.392;7.482;2022-07-25T14:54:01;10.57;;;6.23;;
4980;SDS011;2507;50.392;7.482;2022-07-25T14:56:26;6.40;;;5.90;;
4980;SDS011;2507;50.392;7.482;2022-07-25T14:58:52;7.23;;;6.30;;
4980;SDS011;2507;50.392;7.482;2022-07-25T15:01:17;8.57;;;5.67;;
4980;SDS011;2507;50.392;7.482;2022-07-25T15:03:44;12.40;;;6.03;;
4980;SDS011;2507;50.392;7.482;2022-07-25T15:06:10;8.77;;;6.40;;
4980;SDS011;2507;50.392;7.482;2022-07-25T15:08:35;7.50;;;5.87;;
4980;SDS011;2507;50.392;7.482;2022-07-25T15:11:02;6.90;;;5.93;;
4980;SDS011;2507;50.392;7.482;2022-07-25T15:13:28;5.67;;;5.07;;